Flight Track Log - Related Links

Times and Time Zones

All times are in EDT time to prevent confusion due to time zone crossing. See the ATN540 flight status page for this flight to view local times or setup timezone preferences in your user account.


Time Position Orientation Groundspeed Altitude Reporting Facility
EDT Latitude Longitude Course Direction KTS MPH feet Rate Location/Type
Wed 01:12:55 PM 28.2167 -80.6167 270° West 163 188 800  Level Orlando TRACON
Wed 01:13:38 PM 28.2167 -80.6500 270° West 199 229 2,500 2,505 Climbing Orlando TRACON
Wed 01:14:38 PM 28.2167 -80.7167 300° West 257 296 5,100 3,350 Climbing Orlando TRACON
Wed 01:15:38 PM 28.2500 -80.7833 332° Northwest 264 304 9,200 2,850 Climbing Orlando TRACON
Wed 01:16:38 PM 28.3333 -80.8333 326° Northwest 338 389 10,800 1,970 Climbing Orlando TRACON
Wed 01:18:59 PM 28.5344 -80.9856 318° Northwest 389 448 15,800 2,328 Climbing Jacksonville Center
Wed 01:19:59 PM 28.6064 -81.0600 323° Northwest 369 425 18,600 1,950 Climbing Jacksonville Center
Wed 01:20:59 PM 28.6908 -81.1317 326° Northwest 363 418 19,700 1,400 Climbing Jacksonville Center
Wed 01:21:59 PM 28.7900 -81.2083 328° Northwest 398 458 21,400 1,650 Climbing Jacksonville Center
Wed 01:22:59 PM 28.8933 -81.2825 353° North 416 479 23,000 1,100 Climbing Jacksonville Center
Wed 01:23:59 PM 29.0186 -81.2994 351° North 431 496 23,600 1,300 Climbing Jacksonville Center
Wed 01:24:59 PM 29.1442 -81.3211 353° North 453 521 25,600 2,000 Climbing Jacksonville Center
Wed 01:25:59 PM 29.2675 -81.3381 350° North 446 513 27,600 1,900 Climbing Jacksonville Center
Wed 01:26:59 PM 29.3889 -81.3625 353° North 440 506 29,400 1,400 Climbing Jacksonville Center
Wed 01:27:59 PM 29.4956 -81.3775 352° North 440 506 30,400 1,000 Climbing Jacksonville Center
Wed 01:28:59 PM 29.6211 -81.3969 352° North 440 506 31,400 1,200 Climbing Jacksonville Center
Wed 01:29:59 PM 29.7464 -81.4167 352° North 447 514 32,800 800 Climbing Jacksonville Center
Wed 01:30:59 PM 29.8742 -81.4386 352° North 452 520 33,000 100 Climbing Jacksonville Center
Wed 01:31:59 PM 30.0058 -81.4606 352° North 465 535 33,000  Level Jacksonville Center
Wed 01:32:59 PM 30.1333 -81.4803 352° North 465 535 33,000  Level Jacksonville Center
Wed 01:33:59 PM 30.2736 -81.5022 359° North 460 529 33,000 300 Level Jacksonville Center
Wed 01:34:59 PM 30.4031 -81.5053 North 465 535 33,600 1,300 Climbing Jacksonville Center
Wed 01:35:59 PM 30.5364 -81.4936 North 465 535 35,600 2,350 Climbing Jacksonville Center
Wed 01:36:59 PM 30.6658 -81.4844 North 470 541 38,300 2,550 Climbing Jacksonville Center
Wed 01:37:59 PM 30.7889 -81.4756 North 465 535 40,700 1,350 Climbing Jacksonville Center
Wed 01:38:59 PM 30.9142 -81.4639 North 450 518 41,000 100 Climbing Jacksonville Center
Wed 01:39:59 PM 31.0456 -81.4547 North 450 518 40,900 50 Descending Jacksonville Center
Wed 01:40:59 PM 31.1769 -81.4406 27° Northeast 464 534 41,100 50 Climbing Jacksonville Center
Wed 01:41:59 PM 31.2950 -81.3706 35° Northeast 458 527 41,000 -50 Descending Jacksonville Center
Wed 01:42:59 PM 31.3964 -81.2861 35° Northeast 481 554 41,000  Level Jacksonville Center
Wed 01:43:59 PM 31.5161 -81.1867 35° Northeast 481 554 41,000  Level Jacksonville Center
Wed 01:44:59 PM 31.6278 -81.0944 35° Northeast 486 559 41,000  Level Jacksonville Center
Wed 01:45:59 PM 31.7392 -81.0042 35° Northeast 491 565 41,000  Level Jacksonville Center
Wed 01:46:59 PM 31.8381 -80.9239 36° Northeast 481 554 41,000  Level Jacksonville Center
Wed 01:47:59 PM 31.9453 -80.8336 34° Northeast 481 554 41,000  Level Jacksonville Center
Wed 01:48:59 PM 32.0689 -80.7353 36° Northeast 481 554 41,000  Level Jacksonville Center
Wed 01:49:59 PM 32.1656 -80.6519 35° Northeast 486 559 41,000  Level Jacksonville Center
Wed 01:50:59 PM 32.2767 -80.5608 36° Northeast 486 559 41,000  Level Jacksonville Center
Wed 01:51:59 PM 32.3875 -80.4669 36° Northeast 486 559 41,000  Level Jacksonville Center
Wed 01:52:59 PM 32.4983 -80.3728 35° Northeast 486 559 41,000  Level Jacksonville Center
Wed 01:53:59 PM 32.6256 -80.2656 36° Northeast 492 566 41,000  Level Jacksonville Center
Wed 01:54:59 PM 32.7383 -80.1686 35° Northeast 492 566 41,000  Level Jacksonville Center
Wed 01:55:59 PM 32.8533 -80.0711 33° Northeast 492 566 41,000  Level Jacksonville Center
Wed 01:56:59 PM 32.9700 -79.9808 31° Northeast 497 572 41,000  Level Jacksonville Center
Wed 01:57:59 PM 33.0914 -79.8950 31° Northeast 497 572 41,000  Level Jacksonville Center
Wed 01:58:59 PM 33.2103 -79.8092 32° Northeast 497 572 41,000  Level Jacksonville Center
Wed 01:59:59 PM 33.3269 -79.7206 31° Northeast 497 572 41,000  Level Jacksonville Center
Wed 02:00:59 PM 33.4439 -79.6367 32° Northeast 497 572 41,000  Level Jacksonville Center
Wed 02:01:59 PM 33.5606 -79.5503 32° Northeast 492 566 41,000  Level Jacksonville Center
Wed 02:02:59 PM 33.6772 -79.4633 30° Northeast 492 566 41,000  Level Jacksonville Center
Wed 02:03:59 PM 33.7817 -79.3919 33° Northeast 487 560 41,000  Level Jacksonville Center
Wed 02:04:59 PM 33.8981 -79.3022 30° Northeast 487 560 41,000  Level Jacksonville Center
Wed 02:05:59 PM 34.0144 -79.2197 32° Northeast 482 555 41,000  Level Jacksonville Center
Wed 02:08:05 PM 34.2706 -79.0272 32° Northeast 488 562 41,000  Level Washington Center
Wed 02:09:05 PM 34.3750 -78.9486 32° Northeast 488 562 41,000  Level Washington Center
Wed 02:10:05 PM 34.4903 -78.8600 33° Northeast 488 562 41,000  Level Washington Center
Wed 02:11:06 PM 34.6161 -78.7592 32° Northeast 488 562 41,000  Level Washington Center
Wed 02:12:04 PM 34.7225 -78.6797 33° Northeast 493 567 41,000  Level Washington Center
Wed 02:13:05 PM 34.8458 -78.5833 33° Northeast 488 562 41,000 -246 Level Washington Center
Wed 02:14:06 PM 34.9631 -78.4914 32° Northeast 488 562 40,500 -639 Descending Washington Center
Wed 02:15:07 PM 35.0692 -78.4114 33° Northeast 488 562 39,700 -908 Descending Washington Center
Wed 02:16:05 PM 35.1861 -78.3189 32° Northeast 500 575 38,700 -966 Descending Washington Center
Wed 02:17:05 PM 35.3092 -78.2264 33° Northeast 506 582 37,800 -942 Descending Washington Center
Wed 02:18:06 PM 35.4281 -78.1333 32° Northeast 511 588 36,800 -992 Descending Washington Center
Wed 02:19:06 PM 35.5489 -78.0403 33° Northeast 511 588 35,800 -950 Descending Washington Center
Wed 02:20:06 PM 35.6697 -77.9442 32° Northeast 511 588 34,900 -942 Descending Washington Center
Wed 02:21:07 PM 35.7861 -77.8556 33° Northeast 506 582 33,900 -1,008 Descending Washington Center
Wed 02:22:05 PM 35.9069 -77.7589 39° Northeast 506 582 32,900 -454 Descending Washington Center
Wed 02:23:06 PM 36.0131 -77.6514 52° Northeast 504 580 33,000  Climbing Washington Center
Wed 02:24:06 PM 36.1011 -77.5122 54° Northeast 506 582 32,900  Descending Washington Center
Wed 02:25:07 PM 36.1803 -77.3753 53° Northeast 506 582 33,000 50 Climbing Washington Center
Wed 02:26:07 PM 36.2658 -77.2356 53° Northeast 501 577 33,000  Level Washington Center
Wed 02:27:05 PM 36.3617 -77.0803 54° Northeast 501 577 33,000  Level Washington Center
Wed 02:28:06 PM 36.4383 -76.9500 52° Northeast 507 583 33,000 -443 Level Washington Center
Wed 02:29:07 PM 36.5317 -76.8017 52° Northeast 502 578 32,100 -942 Descending Washington Center
Wed 02:30:07 PM 36.6186 -76.6606 53° Northeast 502 578 31,100 -1,017 Descending Washington Center
Wed 02:31:05 PM 36.6989 -76.5269 55° Northeast 502 578 30,100 -857 Descending Washington Center
Wed 02:32:06 PM 36.7667 -76.4061 52° Northeast 485 558 29,400 -541 Descending Washington Center
Wed 02:33:07 PM 36.8572 -76.2589 35° Northeast 485 558 29,000 -198 Descending Washington Center
Wed 02:34:07 PM 36.9706 -76.1586 22° Northeast 473 544 29,000  Level Washington Center
Wed 02:35:07 PM 37.0917 -76.0969 26° Northeast 489 563 29,000  Level Washington Center
Wed 02:36:05 PM 37.2256 -76.0144 27° Northeast 509 586 29,000  Level Washington Center
Wed 02:37:06 PM 37.3572 -75.9314 27° Northeast 520 598 29,000  Level Washington Center
Wed 02:38:07 PM 37.4867 -75.8483 27° Northeast 520 598 29,000  Level Washington Center
Wed 02:39:05 PM 37.6161 -75.7647 26° Northeast 515 593 29,000 -407 Level Washington Center
Wed 02:40:05 PM 37.7372 -75.6889 26° Northeast 504 580 28,200 -1,488 Descending Washington Center
Wed 02:41:06 PM 37.8542 -75.6156 27° Northeast 481 554 26,000 -2,331 Descending Washington Center
Wed 02:42:06 PM 37.9686 -75.5417 26° Northeast 464 534 23,500 -2,430 Descending Washington Center
Wed 02:43:07 PM 38.0792 -75.4731 28° Northeast 451 519 21,100 -2,380 Descending Washington Center
Wed 02:44:07 PM 38.1856 -75.4014 26° Northeast 438 504 18,700 -2,615 Descending Washington Center
Wed 02:45:04 PM 38.2917 -75.3350 31° Northeast 426 490 16,000 -2,593 Descending Washington Center
Wed 02:46:05 PM 38.4000 -75.2525 26° Northeast 419 482 13,600 -1,918 Descending Washington Center
Wed 02:47:06 PM 38.4936 -75.1939 29° Northeast 392 451 12,100 -1,289 Descending Washington Center
Wed 02:48:06 PM 38.5808 -75.1322 25° Northeast 364 419 11,000 -545 Descending Washington Center
Wed 02:49:07 PM 38.6683 -75.0811 28° Northeast 343 395 11,000  Level Washington Center
Wed 02:50:06 PM 38.7533 -75.0219 26° Northeast 343 395 11,000  Level Washington Center
Wed 02:51:06 PM 38.8408 -74.9681 26° Northeast 343 395 11,000 -397 Level Washington Center
Wed 02:52:07 PM 38.9217 -74.9167 28° Northeast 336 387 10,200 -857 Descending Washington Center
Wed 02:53:05 PM 39.0006 -74.8625 26° Northeast 324 373 9,300 -915 Descending Washington Center
Wed 02:54:05 PM 39.0733 -74.8164 35° Northeast 301 346 8,400 -1,091 Descending Washington Center
Wed 02:55:06 PM 39.1375 -74.7594 26° Northeast 291 335 7,100 -694 Descending Washington Center
Wed 02:56:06 PM 39.2039 -74.7183 North 273 314 7,000 -149 Descending Washington Center
Wed 02:57:07 PM 39.2831 -74.7094 North 262 302 6,800 -605 Descending Washington Center
Wed 02:58:05 PM 39.3581 -74.6978 North 268 308 5,800 -958 Descending Washington Center
Wed 02:59:06 PM 39.4331 -74.6833 North 268 308 4,900 -942 Descending Washington Center
Wed 03:00:06 PM 39.5036 -74.6744 North 268 308 3,900 -958 Descending Washington Center
Wed 03:01:05 PM 39.5767 -74.6628 43° Northeast 268 308 3,000 -915 Descending Washington Center
Wed 03:08:32 PM 40.0429 -74.0871 265° West  Level FlightAware Approximate
Wed 03:09:32 PM 40.0326 -74.2456 263° West  Level FlightAware Approximate
Wed 03:10:32 PM 40.0167 -74.4032 264° West  Level FlightAware Approximate
Wed 03:11:32 PM 40.0038 -74.5603 296° West  Level FlightAware Approximate
Wed 03:12:32 PM 40.0572 -74.7032 122° Southeast  Level Estimated
Wed 03:13:32 PM 40.0000 -74.5833 338° Northwest  Level FlightAware Approximate
Wed 03:14:32 PM 40.1126 -74.6440 158° South  Level Estimated
Wed 03:15:32 PM 40.0000 -74.5833 338° Northwest  Level FlightAware Approximate
Wed 03:16:32 PM 40.1126 -74.6440 158° South  Level Estimated
Wed 03:17:32 PM 40.0000 -74.5833 338° Northwest  Level FlightAware Approximate
Wed 03:18:32 PM 40.1126 -74.6440 158° South  Level Estimated
Wed 03:19:32 PM 40.0000 -74.5833 338° Northwest  Level FlightAware Approximate
Wed 03:20:32 PM 40.1126 -74.6440 158° South  Level Estimated
Wed 03:21:32 PM 40.0000 -74.5833 338° Northwest  Level FlightAware Approximate

Login

Don't have an account? Register now (free) for customized features, flight alerts, and more!